Terminal Aerodrome Forecast
Issued by NWS

Home | Current Version | Previous Version | Text Only | Print | Product List | Glossary On
Versions: 1 2 3 4 5 6 7 8 9 10 11 12 13 14 15
000
FTUS43 KEAX 210520
TAFSTJ
TAF
KSTJ 210520Z 2106/2206 VRB05KT 3SM BR FEW050
      TEMPO 2106/2109 1SM BR
     FM210900 11006KT 3SM BR OVC010
     FM211000 15007KT 3SM -DZ BR OVC004
     FM211700 16007KT P6SM -DZ OVC008
     FM211900 15007KT P6SM VCSH OVC010
     FM212300 13006KT P6SM VCSH OVC008=

USA.gov is the U.S. government's official web portal to all federal, state and local government web resources and services.